createdAt,value
2023-06-19T00:01:22.458Z,25.58
2023-06-19T00:03:50.482Z,24.44
2023-06-19T00:06:18.408Z,25.72
2023-06-19T00:08:46.317Z,25.53
2023-06-19T00:11:14.112Z,25.63
2023-06-19T00:13:41.976Z,25.80
2023-06-19T00:16:09.905Z,25.33
2023-06-19T00:18:41.259Z,25.55
2023-06-19T00:21:10.000Z,25.53
2023-06-19T00:23:37.874Z,25.40
2023-06-19T00:26:07.813Z,25.00
2023-06-19T00:28:35.762Z,26.09
2023-06-19T00:31:03.548Z,26.21
2023-06-19T00:33:31.353Z,26.34
2023-06-19T00:36:00.459Z,26.07
2023-06-19T00:38:28.275Z,25.78
2023-06-19T00:40:56.607Z,25.51
2023-06-19T00:43:24.456Z,26.51
2023-06-19T00:45:52.289Z,26.15
2023-06-19T00:48:20.257Z,26.33
2023-06-19T00:50:48.004Z,27.14
2023-06-19T00:53:17.309Z,27.06
2023-06-19T00:55:46.386Z,27.54
2023-06-19T00:58:14.312Z,26.82
2023-06-19T01:00:47.437Z,27.50
2023-06-19T01:03:20.759Z,27.42
2023-06-19T01:05:53.374Z,26.35
2023-06-19T01:08:37.261Z,26.78
2023-06-19T01:11:14.802Z,26.43
2023-06-19T01:13:59.360Z,25.20
2023-06-19T01:16:27.897Z,26.48
2023-06-19T01:18:56.780Z,27.50
2023-06-19T01:21:24.914Z,26.41
2023-06-19T01:23:54.089Z,26.83
2023-06-19T01:26:27.464Z,26.83
2023-06-19T01:28:56.665Z,27.00
2023-06-19T01:31:29.910Z,27.51
2023-06-19T01:33:58.556Z,26.53
2023-06-19T01:36:27.930Z,28.77
2023-06-19T01:38:59.555Z,26.99
2023-06-19T01:41:28.138Z,26.84
2023-06-19T01:43:56.631Z,27.05
2023-06-19T01:46:33.742Z,27.83
2023-06-19T01:49:08.855Z,27.51
2023-06-19T01:51:36.917Z,28.28
2023-06-19T01:54:06.733Z,27.61
2023-06-19T01:56:34.783Z,27.27
2023-06-19T01:59:02.980Z,27.68
2023-06-19T02:01:31.160Z,27.01
2023-06-19T02:03:59.098Z,27.44
2023-06-19T02:06:27.220Z,27.45
2023-06-19T02:08:55.138Z,26.51
2023-06-19T02:11:24.384Z,26.51
2023-06-19T02:13:53.355Z,27.31
2023-06-19T02:16:21.239Z,27.82
2023-06-19T02:18:50.876Z,28.56
2023-06-19T02:21:18.911Z,28.09
2023-06-19T02:23:46.775Z,27.22
2023-06-19T02:26:14.787Z,27.69
2023-06-19T02:28:44.012Z,27.15
2023-06-19T02:31:12.887Z,27.41
2023-06-19T02:33:40.767Z,27.52
2023-06-19T02:36:08.666Z,26.95
2023-06-19T02:38:36.781Z,27.36
2023-06-19T02:41:04.708Z,27.91
2023-06-19T02:43:34.423Z,28.10
2023-06-19T02:46:03.949Z,27.59
2023-06-19T02:48:31.999Z,28.45
2023-06-19T02:51:00.814Z,28.85
2023-06-19T02:53:28.824Z,27.73
2023-06-19T02:55:56.731Z,27.83
2023-06-19T02:58:24.702Z,29.07
2023-06-19T03:00:52.987Z,28.99
2023-06-19T03:03:24.073Z,28.03
2023-06-19T03:05:52.322Z,27.06
2023-06-19T03:08:20.255Z,28.06
2023-06-19T03:10:48.297Z,28.28
2023-06-19T03:13:16.213Z,28.98
2023-06-19T03:15:44.225Z,29.66
2023-06-19T03:18:12.249Z,29.70
2023-06-19T03:20:42.589Z,29.39
2023-06-19T03:23:10.553Z,30.42
2023-06-19T03:25:43.770Z,29.80
2023-06-19T03:28:12.450Z,29.23
2023-06-19T03:30:40.457Z,29.22
2023-06-19T03:33:09.008Z,28.35
2023-06-19T03:35:45.540Z,27.78
2023-06-19T03:38:31.991Z,28.43
2023-06-19T03:40:59.927Z,28.65
2023-06-19T03:43:28.024Z,27.97
2023-06-19T03:45:56.054Z,27.48
2023-06-19T03:48:24.294Z,27.45
2023-06-19T03:50:53.565Z,27.27
2023-06-19T03:53:21.525Z,26.80
2023-06-19T03:55:49.404Z,27.47
2023-06-19T03:58:17.364Z,27.87
2023-06-19T04:00:45.399Z,28.05
2023-06-19T04:03:13.890Z,28.02
2023-06-19T04:05:43.434Z,28.14
2023-06-19T04:08:14.842Z,27.39
2023-06-19T04:10:45.087Z,28.13
2023-06-19T04:13:12.986Z,28.10
2023-06-19T04:15:41.089Z,27.84
2023-06-19T04:18:08.992Z,26.92
2023-06-19T04:20:38.701Z,27.30
2023-06-19T04:23:06.522Z,27.06
2023-06-19T04:25:35.769Z,27.74
2023-06-19T04:28:04.770Z,27.32
2023-06-19T04:30:32.572Z,27.18
2023-06-19T04:33:01.158Z,27.93
2023-06-19T04:35:29.062Z,28.91
2023-06-19T04:37:56.899Z,28.02
2023-06-19T04:40:26.638Z,26.33
2023-06-19T04:42:56.394Z,25.20
2023-06-19T04:45:24.177Z,29.95
2023-06-19T04:47:54.351Z,31.50
2023-06-19T04:50:23.023Z,30.67
2023-06-19T04:52:52.251Z,32.91
2023-06-19T04:55:20.902Z,33.47
2023-06-19T04:57:48.816Z,32.64
2023-06-19T05:00:20.398Z,32.43
2023-06-19T05:02:48.865Z,32.88
2023-06-19T05:05:17.099Z,30.72
2023-06-19T05:07:46.186Z,31.44
2023-06-19T05:10:14.101Z,29.45
2023-06-19T05:12:41.895Z,27.96
2023-06-19T05:15:10.791Z,29.08
2023-06-19T05:17:40.381Z,30.28
2023-06-19T05:20:09.540Z,28.87
2023-06-19T05:22:38.202Z,27.74
2023-06-19T05:25:06.736Z,28.93
2023-06-19T05:27:34.545Z,28.17
2023-06-19T05:30:02.417Z,29.12
2023-06-19T05:32:30.295Z,31.02
2023-06-19T05:34:59.455Z,31.27
2023-06-19T05:37:28.157Z,31.01
2023-06-19T05:39:56.068Z,30.71
2023-06-19T05:42:24.037Z,29.05
2023-06-19T05:44:51.926Z,28.61
2023-06-19T05:47:21.745Z,29.82
2023-06-19T05:49:49.755Z,30.70
2023-06-19T05:52:19.258Z,30.17
2023-06-19T05:54:47.065Z,29.88
2023-06-19T05:57:17.071Z,28.79
2023-06-19T05:59:45.092Z,30.54
2023-06-19T06:02:12.865Z,30.96
2023-06-19T06:04:40.713Z,29.71
2023-06-19T06:07:09.032Z,31.34
2023-06-19T06:09:38.233Z,30.49
2023-06-19T06:12:07.199Z,30.64
2023-06-19T06:14:34.960Z,29.97
2023-06-19T06:17:03.943Z,29.20
2023-06-19T06:19:33.110Z,29.05
2023-06-19T06:22:01.382Z,29.03
2023-06-19T06:24:29.219Z,29.45
2023-06-19T06:26:59.973Z,29.38
2023-06-19T06:29:27.876Z,30.98
2023-06-19T06:32:05.057Z,31.37
2023-06-19T06:34:44.998Z,32.20
2023-06-19T06:37:12.848Z,32.78
2023-06-19T06:39:40.847Z,32.98
2023-06-19T06:42:09.934Z,31.04
2023-06-19T06:44:37.752Z,30.30
2023-06-19T06:47:05.735Z,29.61
2023-06-19T06:49:33.508Z,28.26
2023-06-19T06:52:02.073Z,28.28
2023-06-19T06:54:29.852Z,26.31
2023-06-19T06:56:59.403Z,26.60
2023-06-19T06:59:29.251Z,27.20
2023-06-19T07:01:57.639Z,27.37
2023-06-19T07:04:25.743Z,26.53
2023-06-19T07:06:53.659Z,25.30
2023-06-19T07:09:22.271Z,25.80
2023-06-19T07:11:53.237Z,25.51
2023-06-19T07:14:24.128Z,25.21
2023-06-19T07:16:53.305Z,25.52
2023-06-19T07:19:21.248Z,25.37
2023-06-19T07:21:49.435Z,25.73
2023-06-19T07:24:17.285Z,24.68
2023-06-19T07:26:45.147Z,24.09
2023-06-19T07:29:13.069Z,24.48
2023-06-19T07:31:43.676Z,23.21
2023-06-19T07:34:13.187Z,23.84
2023-06-19T07:36:41.015Z,24.73
2023-06-19T07:39:09.044Z,25.22
2023-06-19T07:41:36.872Z,25.07
2023-06-19T07:44:04.973Z,26.31
2023-06-19T07:46:32.939Z,25.89
2023-06-19T07:49:00.958Z,25.88
2023-06-19T07:51:30.131Z,28.36
2023-06-19T07:53:57.991Z,27.83
2023-06-19T07:56:25.820Z,27.63
2023-06-19T07:58:53.759Z,25.39
2023-06-19T08:01:21.618Z,25.02
2023-06-19T08:03:49.611Z,24.78
2023-06-19T08:06:17.646Z,25.22
2023-06-19T08:08:47.771Z,24.48
2023-06-19T08:11:15.934Z,25.24
2023-06-19T08:13:43.734Z,25.38
2023-06-19T08:16:11.666Z,24.24
2023-06-19T08:18:39.519Z,26.45
2023-06-19T08:21:07.571Z,26.13
2023-06-19T08:23:35.514Z,25.81
2023-06-19T08:26:05.252Z,26.38
2023-06-19T08:28:34.501Z,24.58
2023-06-19T08:31:02.417Z,25.18
2023-06-19T08:33:36.828Z,24.64
2023-06-19T08:36:05.256Z,25.65
2023-06-19T08:38:33.050Z,25.62
2023-06-19T08:41:01.129Z,26.13
2023-06-19T08:43:30.472Z,26.29
2023-06-19T08:46:09.593Z,27.92
2023-06-19T08:48:37.817Z,27.42
2023-06-19T08:51:06.295Z,27.32
2023-06-19T08:53:37.015Z,26.29
2023-06-19T08:56:06.891Z,26.29
2023-06-19T08:58:36.036Z,26.85
2023-06-19T09:01:04.008Z,27.51
2023-06-19T09:03:31.942Z,26.44
2023-06-19T09:06:05.262Z,27.40
2023-06-19T09:08:33.955Z,27.13
2023-06-19T09:11:03.236Z,26.37
2023-06-19T09:13:32.047Z,26.10
2023-06-19T09:16:04.153Z,25.12
2023-06-19T09:18:33.098Z,25.73
2023-06-19T09:21:01.079Z,25.84
2023-06-19T09:23:28.892Z,26.38
2023-06-19T09:26:00.413Z,26.24
2023-06-19T09:28:34.299Z,25.62
2023-06-19T09:31:06.230Z,26.23
2023-06-19T09:33:35.880Z,26.06
2023-06-19T09:36:05.634Z,27.16
2023-06-19T09:38:35.983Z,27.87
2023-06-19T09:41:05.318Z,27.14
2023-06-19T09:43:38.093Z,26.90
2023-06-19T09:46:08.848Z,25.70
2023-06-19T09:48:43.224Z,26.70
2023-06-19T09:51:18.923Z,26.56
2023-06-19T09:53:48.000Z,26.43
2023-06-19T09:56:16.537Z,26.45
2023-06-19T09:58:45.458Z,26.80
2023-06-19T10:01:16.275Z,27.08
2023-06-19T10:03:44.582Z,26.19
2023-06-19T10:06:16.906Z,25.63
2023-06-19T10:08:46.365Z,26.42
2023-06-19T10:11:14.825Z,25.58
2023-06-19T10:13:44.207Z,24.99
2023-06-19T10:16:23.544Z,24.63
2023-06-19T10:18:52.682Z,26.05
2023-06-19T10:21:21.006Z,25.87
2023-06-19T10:23:57.154Z,25.51
2023-06-19T10:26:33.347Z,26.62
2023-06-19T10:29:01.392Z,26.55
2023-06-19T10:31:30.740Z,26.54
2023-06-19T10:33:58.778Z,26.89
2023-06-19T10:36:27.627Z,26.80
2023-06-19T10:38:56.355Z,26.37
2023-06-19T10:41:26.030Z,25.85
2023-06-19T10:43:59.356Z,26.54
2023-06-19T10:46:33.019Z,25.71
2023-06-19T10:49:02.846Z,25.85
2023-06-19T10:51:30.804Z,26.14
2023-06-19T10:53:59.393Z,25.98
2023-06-19T10:56:27.566Z,26.06
2023-06-19T10:59:02.659Z,25.31
2023-06-19T11:01:37.074Z,26.36
2023-06-19T11:04:07.124Z,26.32
2023-06-19T11:06:38.368Z,28.11
2023-06-19T11:09:06.685Z,28.19
2023-06-19T11:11:38.797Z,27.05
2023-06-19T11:14:07.354Z,26.39
2023-06-19T11:16:39.653Z,26.54
2023-06-19T11:19:09.164Z,25.76
2023-06-19T11:21:39.275Z,25.37
2023-06-19T11:24:08.818Z,26.65
2023-06-19T11:26:39.653Z,25.81
2023-06-19T11:29:17.202Z,23.98
2023-06-19T11:31:46.559Z,25.14
2023-06-19T11:34:14.539Z,24.18
2023-06-19T11:36:44.272Z,23.03
2023-06-19T11:39:14.640Z,22.68
2023-06-19T11:41:45.729Z,22.49
2023-06-19T11:44:13.635Z,23.36
2023-06-19T11:46:41.595Z,25.50
2023-06-19T11:49:13.751Z,24.42
2023-06-19T11:51:41.945Z,23.44
2023-06-19T11:54:11.021Z,23.73
2023-06-19T11:56:39.443Z,22.93
2023-06-19T11:59:07.356Z,23.55
2023-06-19T12:01:36.257Z,24.62
2023-06-19T12:04:05.832Z,23.78
2023-06-19T12:06:36.559Z,24.26
2023-06-19T12:09:05.734Z,25.66
2023-06-19T12:11:33.845Z,25.40
2023-06-19T12:14:02.244Z,26.11
2023-06-19T12:16:30.695Z,25.79
2023-06-19T12:18:58.729Z,27.20
2023-06-19T12:21:35.095Z,26.05
2023-06-19T12:24:09.021Z,26.04
2023-06-19T12:26:38.762Z,25.24
2023-06-19T12:29:07.972Z,25.42
2023-06-19T12:31:37.164Z,25.39
2023-06-19T12:34:16.936Z,25.01
2023-06-19T12:36:55.243Z,23.49
2023-06-19T12:39:25.844Z,22.96
2023-06-19T12:41:53.767Z,25.10
2023-06-19T12:44:23.996Z,25.00
2023-06-19T12:46:52.078Z,24.85
2023-06-19T12:49:19.870Z,24.29
2023-06-19T12:51:50.131Z,24.81
2023-06-19T12:54:17.943Z,24.61
2023-06-19T12:56:47.122Z,27.13
2023-06-19T12:59:14.981Z,26.04
2023-06-19T13:01:43.239Z,25.08
2023-06-19T13:04:11.949Z,25.35
2023-06-19T13:06:39.834Z,25.87
2023-06-19T13:09:08.882Z,25.77
2023-06-19T13:11:36.898Z,27.10
2023-06-19T13:14:07.268Z,26.23
2023-06-19T13:16:46.120Z,23.38
2023-06-19T13:19:14.987Z,24.39
2023-06-19T13:21:43.385Z,24.65
2023-06-19T13:24:11.289Z,24.40
2023-06-19T13:26:39.292Z,25.10
2023-06-19T13:29:08.651Z,24.08
2023-06-19T13:31:36.568Z,26.76
2023-06-19T13:34:04.633Z,25.22
2023-06-19T13:36:32.830Z,27.60
2023-06-19T13:39:00.721Z,25.51
2023-06-19T13:41:29.324Z,25.40
2023-06-19T13:43:57.325Z,24.43
2023-06-19T13:46:26.737Z,24.02
2023-06-19T13:48:54.865Z,24.50
2023-06-19T13:51:24.021Z,24.06
2023-06-19T13:53:53.177Z,23.53
2023-06-19T13:56:21.127Z,22.98
2023-06-19T13:58:48.983Z,23.98
2023-06-19T14:01:16.887Z,22.70
2023-06-19T14:03:46.194Z,25.17
2023-06-19T14:06:14.419Z,24.13
2023-06-19T14:08:42.274Z,24.65
2023-06-19T14:11:10.544Z,24.04
2023-06-19T14:13:38.585Z,24.73
2023-06-19T14:16:06.430Z,24.19
2023-06-19T14:18:34.695Z,24.63
2023-06-19T14:21:03.861Z,23.92
2023-06-19T14:23:32.100Z,22.92
2023-06-19T14:25:59.936Z,22.83
2023-06-19T14:28:27.699Z,22.82
2023-06-19T14:30:55.563Z,23.50
2023-06-19T14:33:23.823Z,23.61
2023-06-19T14:35:53.257Z,24.40
2023-06-19T14:38:22.750Z,23.22
2023-06-19T14:40:51.338Z,24.70
2023-06-19T14:43:19.310Z,23.02
2023-06-19T14:45:47.147Z,21.49
2023-06-19T14:48:15.098Z,22.23
2023-06-19T14:50:43.211Z,21.64
2023-06-19T14:53:11.038Z,22.58
2023-06-19T14:55:44.384Z,21.52
2023-06-19T14:58:12.347Z,20.04
2023-06-19T15:00:40.587Z,19.12
2023-06-19T15:03:08.649Z,18.14
2023-06-19T15:05:36.593Z,19.80
2023-06-19T15:08:06.360Z,18.42
2023-06-19T15:10:34.453Z,18.50
2023-06-19T15:13:03.555Z,17.13
2023-06-19T15:15:31.371Z,17.73
2023-06-19T15:17:59.337Z,18.21
2023-06-19T15:20:27.214Z,17.95
2023-06-19T15:22:55.127Z,18.77
2023-06-19T15:25:23.022Z,17.55
2023-06-19T15:27:50.987Z,18.98
2023-06-19T15:30:20.163Z,20.46
2023-06-19T15:32:47.947Z,20.24
2023-06-19T15:35:16.130Z,19.68
2023-06-19T15:37:43.957Z,20.23
2023-06-19T15:40:13.676Z,19.42
2023-06-19T15:42:41.543Z,19.00
2023-06-19T15:45:11.791Z,19.49
2023-06-19T15:47:40.967Z,17.31
2023-06-19T15:50:10.512Z,16.29
2023-06-19T15:52:38.277Z,17.25
2023-06-19T15:55:06.809Z,18.09
2023-06-19T15:57:34.576Z,16.46
2023-06-19T16:00:02.395Z,16.91
2023-06-19T16:02:44.437Z,16.66
2023-06-19T16:05:12.524Z,15.33
2023-06-19T16:07:47.455Z,16.88
2023-06-19T16:10:16.994Z,16.37
2023-06-19T16:12:45.460Z,16.36
2023-06-19T16:15:14.456Z,15.47
2023-06-19T16:17:45.106Z,21.24
2023-06-19T16:20:13.650Z,18.21
2023-06-19T16:22:41.439Z,15.61
2023-06-19T16:25:11.884Z,14.61
2023-06-19T16:27:39.735Z,14.26
2023-06-19T16:30:08.887Z,18.83
2023-06-19T16:32:36.805Z,16.84
2023-06-19T16:35:07.342Z,17.02
2023-06-19T16:37:35.247Z,16.50
2023-06-19T16:40:06.191Z,16.62
2023-06-19T16:42:34.045Z,16.24
2023-06-19T16:45:01.857Z,16.33
2023-06-19T16:47:29.762Z,17.16
2023-06-19T16:49:57.570Z,17.04
2023-06-19T16:52:27.636Z,18.81
2023-06-19T16:54:55.852Z,17.32
2023-06-19T16:57:24.935Z,16.85
2023-06-19T16:59:53.032Z,16.59
2023-06-19T17:02:21.086Z,18.37
2023-06-19T17:04:49.315Z,18.13
2023-06-19T17:07:17.210Z,17.88
2023-06-19T17:09:47.214Z,16.54
2023-06-19T17:12:15.916Z,16.96
2023-06-19T17:14:44.141Z,17.13
2023-06-19T17:17:12.098Z,18.42
2023-06-19T17:19:40.157Z,19.37
2023-06-19T17:22:08.094Z,20.13
2023-06-19T17:24:36.034Z,21.24
2023-06-19T17:27:05.968Z,20.96
2023-06-19T17:32:19.926Z,21.34
2023-06-19T17:34:47.900Z,21.18
2023-06-19T17:37:15.841Z,22.46
2023-06-19T17:39:43.864Z,22.94
2023-06-19T17:42:13.341Z,23.07
2023-06-19T17:44:41.183Z,23.53
2023-06-19T17:47:09.198Z,22.66
2023-06-19T17:49:38.237Z,23.19
2023-06-19T17:52:06.515Z,23.55
2023-06-19T17:54:34.339Z,22.51
2023-06-19T17:57:02.399Z,22.94
2023-06-19T17:59:31.845Z,23.07
2023-06-19T18:01:59.839Z,22.76
2023-06-19T18:04:27.921Z,22.83
2023-06-19T18:06:55.869Z,23.83
2023-06-19T18:09:23.921Z,23.42
2023-06-19T18:11:51.855Z,24.21
2023-06-19T18:14:21.451Z,24.23
2023-06-19T18:16:50.826Z,24.21
2023-06-19T18:19:18.868Z,23.75
2023-06-19T18:21:46.792Z,24.90
2023-06-19T18:24:14.978Z,24.99
2023-06-19T18:26:42.884Z,24.33
2023-06-19T18:29:10.795Z,24.91
2023-06-19T18:31:38.603Z,24.26
2023-06-19T18:34:07.759Z,25.00
2023-06-19T18:36:35.717Z,23.67
2023-06-19T18:39:03.609Z,24.30
2023-06-19T18:41:31.635Z,24.38
2023-06-19T18:43:59.529Z,24.24
2023-06-19T18:46:27.688Z,23.57
2023-06-19T18:48:55.600Z,23.36
2023-06-19T18:51:24.893Z,23.23
2023-06-19T18:53:52.901Z,22.95
2023-06-19T18:56:20.793Z,23.91
2023-06-19T18:58:48.713Z,24.21
2023-06-19T19:01:16.679Z,25.06
2023-06-19T19:03:44.661Z,24.41
2023-06-19T19:06:12.661Z,24.60
2023-06-19T19:08:41.870Z,25.00
2023-06-19T19:11:09.803Z,24.85
2023-06-19T19:13:37.896Z,24.53
2023-06-19T19:16:06.501Z,24.54
2023-06-19T19:18:34.578Z,24.75
2023-06-19T19:21:02.450Z,25.84
2023-06-19T19:23:30.397Z,25.04
2023-06-19T19:25:59.873Z,24.96
2023-06-19T19:28:28.065Z,24.63
2023-06-19T19:30:56.221Z,24.94
2023-06-19T19:33:24.235Z,25.23
2023-06-19T19:35:52.195Z,25.05
2023-06-19T19:38:21.042Z,25.08
2023-06-19T19:40:49.571Z,25.22
2023-06-19T19:43:18.996Z,25.01
2023-06-19T19:45:46.875Z,25.30
2023-06-19T19:48:14.781Z,25.68
2023-06-19T19:50:42.764Z,25.56
2023-06-19T19:53:10.677Z,25.26
2023-06-19T19:55:38.485Z,25.63
2023-06-19T19:58:06.574Z,25.67
2023-06-19T20:00:35.831Z,25.83
2023-06-19T20:03:04.035Z,25.85
2023-06-19T20:05:32.112Z,26.06
2023-06-19T20:08:00.123Z,26.05
2023-06-19T20:10:28.219Z,26.09
2023-06-19T20:12:56.432Z,25.81
2023-06-19T20:15:26.345Z,26.42
2023-06-19T20:17:55.692Z,26.40
2023-06-19T20:20:24.055Z,26.09
2023-06-19T20:22:52.216Z,26.58
2023-06-19T20:25:21.618Z,26.66
2023-06-19T20:28:02.731Z,26.72
2023-06-19T20:30:35.262Z,26.33
2023-06-19T20:33:04.779Z,26.86
2023-06-19T20:35:32.711Z,26.48
2023-06-19T20:38:00.671Z,26.86
2023-06-19T20:40:28.907Z,26.55
2023-06-19T20:42:56.778Z,26.51
2023-06-19T20:45:25.965Z,26.63
2023-06-19T20:47:54.170Z,26.97
2023-06-19T20:50:24.202Z,27.01
2023-06-19T20:52:52.737Z,26.96
2023-06-19T20:55:20.816Z,27.07
2023-06-19T20:57:48.771Z,27.16
2023-06-19T21:00:17.114Z,27.09
2023-06-19T21:02:45.326Z,27.36
2023-06-19T21:05:16.383Z,27.25
2023-06-19T21:07:46.696Z,27.51
2023-06-19T21:10:15.494Z,27.68
2023-06-19T21:12:43.498Z,27.57
2023-06-19T21:15:12.602Z,27.16
2023-06-19T21:17:40.628Z,28.22
2023-06-19T21:20:11.117Z,28.00
2023-06-19T21:22:39.365Z,28.48
2023-06-19T21:25:09.376Z,29.90
2023-06-19T21:27:37.364Z,29.78
2023-06-19T21:30:05.902Z,29.30
2023-06-19T21:32:34.078Z,31.00
2023-06-19T21:35:02.107Z,30.13
2023-06-19T21:37:30.747Z,29.66
2023-06-19T21:39:58.555Z,29.27
2023-06-19T21:42:27.762Z,30.18
2023-06-19T21:44:55.802Z,29.88
2023-06-19T21:47:23.698Z,29.41
2023-06-19T21:49:51.654Z,29.37
2023-06-19T21:52:19.848Z,29.08
2023-06-19T21:54:47.716Z,28.88
2023-06-19T21:57:15.720Z,29.01
2023-06-19T21:59:45.045Z,29.49
2023-06-19T22:02:14.897Z,29.39
2023-06-19T22:04:42.893Z,29.69
2023-06-19T22:07:10.967Z,29.85
2023-06-19T22:09:38.921Z,29.20
2023-06-19T22:12:08.087Z,29.20
2023-06-19T22:14:41.486Z,29.03
2023-06-19T22:17:10.803Z,29.66
2023-06-19T22:19:40.016Z,29.79
2023-06-19T22:22:08.691Z,29.88
2023-06-19T22:24:37.660Z,30.84
2023-06-19T22:27:06.178Z,31.49
2023-06-19T22:29:34.613Z,31.63
2023-06-19T22:32:02.666Z,31.46
2023-06-19T22:34:32.319Z,31.77
2023-06-19T22:37:00.182Z,31.78
2023-06-19T22:39:28.644Z,31.81
2023-06-19T22:41:56.680Z,32.73
2023-06-19T22:44:24.456Z,33.26
2023-06-19T22:46:52.256Z,33.81
2023-06-19T22:49:20.030Z,33.25
2023-06-19T22:51:49.204Z,33.43
2023-06-19T22:54:20.162Z,33.10
2023-06-19T22:56:47.938Z,34.52
2023-06-19T22:59:15.901Z,34.90
2023-06-19T23:01:43.692Z,34.38
2023-06-19T23:04:11.599Z,33.71
2023-06-19T23:06:43.984Z,33.46
2023-06-19T23:09:13.930Z,34.47
2023-06-19T23:11:42.943Z,34.16
2023-06-19T23:14:10.886Z,33.82
2023-06-19T23:16:41.507Z,33.15
2023-06-19T23:19:10.056Z,34.07
2023-06-19T23:21:37.847Z,34.13
2023-06-19T23:24:06.479Z,34.67
2023-06-19T23:26:35.954Z,34.39
2023-06-19T23:29:04.544Z,33.99
2023-06-19T23:31:32.408Z,34.37
2023-06-19T23:34:01.022Z,35.96
2023-06-19T23:36:29.430Z,35.17
2023-06-19T23:38:57.364Z,37.35
2023-06-19T23:41:25.232Z,37.24
2023-06-19T23:43:54.414Z,36.93
2023-06-19T23:46:22.343Z,37.71
2023-06-19T23:48:50.162Z,37.48
2023-06-19T23:51:18.111Z,36.88
2023-06-19T23:53:45.874Z,36.08
2023-06-19T23:56:13.751Z,37.68
2023-06-19T23:58:41.523Z,37.02
